sensor_id;sensor_type;location;lat;lon;timestamp;P1;durP1;ratioP1;P2;durP2;ratioP2
13973;SDS011;7060;43.770;4.008;2024-01-16T00:00:36;7.07;;;4.97;;
13973;SDS011;7060;43.770;4.008;2024-01-16T00:03:05;7.50;;;4.93;;
13973;SDS011;7060;43.770;4.008;2024-01-16T00:05:35;10.07;;;5.17;;
13973;SDS011;7060;43.770;4.008;2024-01-16T00:08:05;5.77;;;2.83;;
13973;SDS011;7060;43.770;4.008;2024-01-16T00:10:34;5.07;;;2.43;;
13973;SDS011;7060;43.770;4.008;2024-01-16T00:13:03;6.17;;;4.07;;
13973;SDS011;7060;43.770;4.008;2024-01-16T00:15:32;4.90;;;2.50;;
13973;SDS011;7060;43.770;4.008;2024-01-16T00:18:00;4.47;;;2.50;;
13973;SDS011;7060;43.770;4.008;2024-01-16T00:20:30;3.93;;;2.63;;
13973;SDS011;7060;43.770;4.008;2024-01-16T00:22:59;6.33;;;3.40;;
13973;SDS011;7060;43.770;4.008;2024-01-16T00:25:28;6.57;;;3.53;;
13973;SDS011;7060;43.770;4.008;2024-01-16T00:27:57;7.00;;;3.77;;
13973;SDS011;7060;43.770;4.008;2024-01-16T00:30:25;6.33;;;3.80;;
13973;SDS011;7060;43.770;4.008;2024-01-16T00:32:55;6.13;;;2.93;;
13973;SDS011;7060;43.770;4.008;2024-01-16T00:35:24;4.83;;;2.77;;
13973;SDS011;7060;43.770;4.008;2024-01-16T00:37:53;7.63;;;2.80;;
13973;SDS011;7060;43.770;4.008;2024-01-16T00:40:23;5.50;;;2.90;;
13973;SDS011;7060;43.770;4.008;2024-01-16T00:42:52;4.23;;;2.83;;
13973;SDS011;7060;43.770;4.008;2024-01-16T00:45:21;12.83;;;6.40;;
13973;SDS011;7060;43.770;4.008;2024-01-16T00:47:50;8.67;;;5.20;;
13973;SDS011;7060;43.770;4.008;2024-01-16T00:50:19;10.87;;;5.70;;
13973;SDS011;7060;43.770;4.008;2024-01-16T00:52:48;6.97;;;3.97;;
13973;SDS011;7060;43.770;4.008;2024-01-16T00:55:16;6.10;;;3.90;;
13973;SDS011;7060;43.770;4.008;2024-01-16T00:57:47;7.37;;;4.47;;
13973;SDS011;7060;43.770;4.008;2024-01-16T01:00:16;6.83;;;3.27;;
13973;SDS011;7060;43.770;4.008;2024-01-16T01:02:45;7.23;;;4.37;;
13973;SDS011;7060;43.770;4.008;2024-01-16T01:05:14;6.07;;;3.77;;
13973;SDS011;7060;43.770;4.008;2024-01-16T01:07:43;5.23;;;3.47;;
13973;SDS011;7060;43.770;4.008;2024-01-16T01:10:12;5.33;;;3.47;;
13973;SDS011;7060;43.770;4.008;2024-01-16T01:12:41;6.53;;;3.90;;
13973;SDS011;7060;43.770;4.008;2024-01-16T01:15:11;7.03;;;4.37;;
13973;SDS011;7060;43.770;4.008;2024-01-16T01:17:41;6.77;;;4.10;;
13973;SDS011;7060;43.770;4.008;2024-01-16T01:20:10;5.90;;;3.70;;
13973;SDS011;7060;43.770;4.008;2024-01-16T01:22:40;7.13;;;4.10;;
13973;SDS011;7060;43.770;4.008;2024-01-16T01:25:09;7.33;;;4.63;;
13973;SDS011;7060;43.770;4.008;2024-01-16T01:27:39;7.03;;;4.50;;
13973;SDS011;7060;43.770;4.008;2024-01-16T01:30:08;7.60;;;4.53;;
13973;SDS011;7060;43.770;4.008;2024-01-16T01:32:39;6.17;;;4.23;;
13973;SDS011;7060;43.770;4.008;2024-01-16T01:35:08;7.17;;;4.20;;
13973;SDS011;7060;43.770;4.008;2024-01-16T01:37:38;5.10;;;3.67;;
13973;SDS011;7060;43.770;4.008;2024-01-16T01:40:07;4.80;;;3.13;;
13973;SDS011;7060;43.770;4.008;2024-01-16T01:42:40;7.47;;;3.47;;
13973;SDS011;7060;43.770;4.008;2024-01-16T01:45:09;5.70;;;3.53;;
13973;SDS011;7060;43.770;4.008;2024-01-16T01:47:40;5.90;;;3.80;;
13973;SDS011;7060;43.770;4.008;2024-01-16T01:50:10;6.97;;;4.50;;
13973;SDS011;7060;43.770;4.008;2024-01-16T01:52:40;6.23;;;3.60;;
13973;SDS011;7060;43.770;4.008;2024-01-16T01:55:10;5.77;;;4.13;;
13973;SDS011;7060;43.770;4.008;2024-01-16T01:57:41;4.97;;;3.23;;
13973;SDS011;7060;43.770;4.008;2024-01-16T02:00:11;5.07;;;3.57;;
13973;SDS011;7060;43.770;4.008;2024-01-16T02:02:43;5.83;;;3.43;;
13973;SDS011;7060;43.770;4.008;2024-01-16T02:05:11;4.80;;;3.20;;
13973;SDS011;7060;43.770;4.008;2024-01-16T02:07:40;5.33;;;3.43;;
13973;SDS011;7060;43.770;4.008;2024-01-16T02:10:10;4.40;;;2.97;;
13973;SDS011;7060;43.770;4.008;2024-01-16T02:12:39;4.03;;;3.13;;
13973;SDS011;7060;43.770;4.008;2024-01-16T02:15:08;6.00;;;3.60;;
13973;SDS011;7060;43.770;4.008;2024-01-16T02:17:38;4.50;;;3.20;;
13973;SDS011;7060;43.770;4.008;2024-01-16T02:20:09;4.53;;;2.93;;
13973;SDS011;7060;43.770;4.008;2024-01-16T02:22:38;3.67;;;2.73;;
13973;SDS011;7060;43.770;4.008;2024-01-16T02:25:13;4.50;;;2.93;;
13973;SDS011;7060;43.770;4.008;2024-01-16T02:27:42;7.33;;;3.70;;
13973;SDS011;7060;43.770;4.008;2024-01-16T02:30:11;4.70;;;3.33;;
13973;SDS011;7060;43.770;4.008;2024-01-16T02:32:41;6.20;;;4.03;;
13973;SDS011;7060;43.770;4.008;2024-01-16T02:35:10;4.80;;;3.43;;
13973;SDS011;7060;43.770;4.008;2024-01-16T02:37:39;4.97;;;3.17;;
13973;SDS011;7060;43.770;4.008;2024-01-16T02:40:08;6.17;;;3.97;;
13973;SDS011;7060;43.770;4.008;2024-01-16T02:42:39;3.97;;;2.90;;
13973;SDS011;7060;43.770;4.008;2024-01-16T02:45:08;3.57;;;2.80;;
13973;SDS011;7060;43.770;4.008;2024-01-16T02:47:37;4.53;;;3.27;;
13973;SDS011;7060;43.770;4.008;2024-01-16T02:50:06;3.40;;;2.40;;
13973;SDS011;7060;43.770;4.008;2024-01-16T02:52:36;6.40;;;5.00;;
13973;SDS011;7060;43.770;4.008;2024-01-16T02:55:06;4.07;;;3.23;;
13973;SDS011;7060;43.770;4.008;2024-01-16T02:57:36;3.27;;;2.53;;
13973;SDS011;7060;43.770;4.008;2024-01-16T03:00:07;4.17;;;2.97;;
13973;SDS011;7060;43.770;4.008;2024-01-16T03:02:36;4.67;;;3.33;;
13973;SDS011;7060;43.770;4.008;2024-01-16T03:05:06;4.60;;;2.80;;
13973;SDS011;7060;43.770;4.008;2024-01-16T03:07:36;3.90;;;3.30;;
13973;SDS011;7060;43.770;4.008;2024-01-16T03:10:05;4.57;;;2.93;;
13973;SDS011;7060;43.770;4.008;2024-01-16T03:12:34;4.83;;;3.27;;
13973;SDS011;7060;43.770;4.008;2024-01-16T03:15:05;4.10;;;2.97;;
13973;SDS011;7060;43.770;4.008;2024-01-16T03:17:34;3.40;;;2.90;;
13973;SDS011;7060;43.770;4.008;2024-01-16T03:20:03;3.70;;;2.60;;
13973;SDS011;7060;43.770;4.008;2024-01-16T03:22:34;4.50;;;2.83;;
13973;SDS011;7060;43.770;4.008;2024-01-16T03:25:03;4.10;;;2.70;;
13973;SDS011;7060;43.770;4.008;2024-01-16T03:27:32;3.80;;;2.67;;
13973;SDS011;7060;43.770;4.008;2024-01-16T03:30:01;3.67;;;2.43;;
13973;SDS011;7060;43.770;4.008;2024-01-16T03:32:32;4.07;;;2.73;;
13973;SDS011;7060;43.770;4.008;2024-01-16T03:35:02;3.73;;;2.70;;
13973;SDS011;7060;43.770;4.008;2024-01-16T03:37:31;4.97;;;2.60;;
13973;SDS011;7060;43.770;4.008;2024-01-16T03:40:00;4.00;;;2.50;;
13973;SDS011;7060;43.770;4.008;2024-01-16T03:42:29;3.53;;;2.60;;
13973;SDS011;7060;43.770;4.008;2024-01-16T03:44:58;3.77;;;2.47;;
13973;SDS011;7060;43.770;4.008;2024-01-16T03:47:27;3.50;;;2.63;;
13973;SDS011;7060;43.770;4.008;2024-01-16T03:49:57;3.40;;;2.30;;
13973;SDS011;7060;43.770;4.008;2024-01-16T03:52:26;3.60;;;2.50;;
13973;SDS011;7060;43.770;4.008;2024-01-16T03:58:01;3.07;;;2.00;;
13973;SDS011;7060;43.770;4.008;2024-01-16T04:00:30;7.03;;;2.90;;
13973;SDS011;7060;43.770;4.008;2024-01-16T04:02:59;3.77;;;2.40;;
13973;SDS011;7060;43.770;4.008;2024-01-16T04:05:30;3.77;;;2.47;;
13973;SDS011;7060;43.770;4.008;2024-01-16T04:07:59;2.83;;;2.17;;
13973;SDS011;7060;43.770;4.008;2024-01-16T04:10:28;3.33;;;2.43;;
13973;SDS011;7060;43.770;4.008;2024-01-16T04:12:59;4.50;;;2.53;;
13973;SDS011;7060;43.770;4.008;2024-01-16T04:15:28;2.47;;;1.90;;
13973;SDS011;7060;43.770;4.008;2024-01-16T04:17:57;4.17;;;1.70;;
13973;SDS011;7060;43.770;4.008;2024-01-16T04:20:26;3.23;;;2.20;;
13973;SDS011;7060;43.770;4.008;2024-01-16T04:22:57;3.03;;;1.90;;
13973;SDS011;7060;43.770;4.008;2024-01-16T04:25:26;2.20;;;1.60;;
13973;SDS011;7060;43.770;4.008;2024-01-16T04:27:55;2.53;;;1.77;;
13973;SDS011;7060;43.770;4.008;2024-01-16T04:30:26;2.73;;;1.80;;
13973;SDS011;7060;43.770;4.008;2024-01-16T04:32:55;2.10;;;1.63;;
13973;SDS011;7060;43.770;4.008;2024-01-16T04:35:24;2.83;;;2.27;;
13973;SDS011;7060;43.770;4.008;2024-01-16T04:37:53;2.57;;;1.80;;
13973;SDS011;7060;43.770;4.008;2024-01-16T04:40:23;2.43;;;1.73;;
13973;SDS011;7060;43.770;4.008;2024-01-16T04:42:52;5.80;;;2.23;;
13973;SDS011;7060;43.770;4.008;2024-01-16T04:45:21;3.10;;;1.80;;
13973;SDS011;7060;43.770;4.008;2024-01-16T04:47:50;4.70;;;2.63;;
13973;SDS011;7060;43.770;4.008;2024-01-16T04:50:19;2.30;;;1.77;;
13973;SDS011;7060;43.770;4.008;2024-01-16T04:52:48;3.80;;;1.77;;
13973;SDS011;7060;43.770;4.008;2024-01-16T04:55:20;2.30;;;1.67;;
13973;SDS011;7060;43.770;4.008;2024-01-16T04:57:50;3.10;;;1.23;;
13973;SDS011;7060;43.770;4.008;2024-01-16T05:00:19;14.60;;;5.60;;
13973;SDS011;7060;43.770;4.008;2024-01-16T05:02:48;4.63;;;2.97;;
13973;SDS011;7060;43.770;4.008;2024-01-16T05:05:18;3.53;;;2.77;;
13973;SDS011;7060;43.770;4.008;2024-01-16T05:07:47;3.23;;;2.23;;
13973;SDS011;7060;43.770;4.008;2024-01-16T05:10:16;3.97;;;2.53;;
13973;SDS011;7060;43.770;4.008;2024-01-16T05:12:45;3.70;;;2.53;;
13973;SDS011;7060;43.770;4.008;2024-01-16T05:15:16;3.30;;;2.10;;
13973;SDS011;7060;43.770;4.008;2024-01-16T05:17:45;3.80;;;2.70;;
13973;SDS011;7060;43.770;4.008;2024-01-16T05:20:14;3.70;;;2.70;;
13973;SDS011;7060;43.770;4.008;2024-01-16T05:22:43;5.37;;;3.30;;
13973;SDS011;7060;43.770;4.008;2024-01-16T05:25:12;4.90;;;3.23;;
13973;SDS011;7060;43.770;4.008;2024-01-16T05:27:41;3.43;;;2.90;;
13973;SDS011;7060;43.770;4.008;2024-01-16T05:30:11;3.97;;;2.87;;
13973;SDS011;7060;43.770;4.008;2024-01-16T05:32:42;4.03;;;3.10;;
13973;SDS011;7060;43.770;4.008;2024-01-16T05:35:11;4.57;;;2.90;;
13973;SDS011;7060;43.770;4.008;2024-01-16T05:37:40;2.43;;;1.70;;
13973;SDS011;7060;43.770;4.008;2024-01-16T05:40:09;2.70;;;1.93;;
13973;SDS011;7060;43.770;4.008;2024-01-16T05:42:39;3.20;;;1.70;;
13973;SDS011;7060;43.770;4.008;2024-01-16T05:45:08;2.73;;;1.70;;
13973;SDS011;7060;43.770;4.008;2024-01-16T05:47:37;2.03;;;1.40;;
13973;SDS011;7060;43.770;4.008;2024-01-16T05:50:08;2.87;;;1.63;;
13973;SDS011;7060;43.770;4.008;2024-01-16T05:52:38;6.20;;;1.70;;
13973;SDS011;7060;43.770;4.008;2024-01-16T05:55:11;2.00;;;1.30;;
13973;SDS011;7060;43.770;4.008;2024-01-16T05:57:40;1.70;;;1.20;;
13973;SDS011;7060;43.770;4.008;2024-01-16T06:00:10;2.67;;;1.60;;
13973;SDS011;7060;43.770;4.008;2024-01-16T06:02:41;1.97;;;1.40;;
13973;SDS011;7060;43.770;4.008;2024-01-16T06:05:11;2.65;;;1.48;;
13973;SDS011;7060;43.770;4.008;2024-01-16T06:07:40;3.57;;;1.47;;
13973;SDS011;7060;43.770;4.008;2024-01-16T06:10:11;4.13;;;1.10;;
13973;SDS011;7060;43.770;4.008;2024-01-16T06:12:40;1.67;;;1.00;;
13973;SDS011;7060;43.770;4.008;2024-01-16T06:15:09;4.33;;;1.00;;
13973;SDS011;7060;43.770;4.008;2024-01-16T06:17:39;1.93;;;1.10;;
13973;SDS011;7060;43.770;4.008;2024-01-16T06:20:11;2.20;;;1.27;;
13973;SDS011;7060;43.770;4.008;2024-01-16T06:22:40;2.50;;;1.47;;
13973;SDS011;7060;43.770;4.008;2024-01-16T06:25:09;1.30;;;1.03;;
13973;SDS011;7060;43.770;4.008;2024-01-16T06:27:37;2.00;;;1.20;;
13973;SDS011;7060;43.770;4.008;2024-01-16T06:30:07;1.60;;;1.10;;
13973;SDS011;7060;43.770;4.008;2024-01-16T06:32:37;2.53;;;1.00;;
13973;SDS011;7060;43.770;4.008;2024-01-16T06:35:06;1.87;;;1.37;;
13973;SDS011;7060;43.770;4.008;2024-01-16T06:37:37;3.20;;;1.50;;
13973;SDS011;7060;43.770;4.008;2024-01-16T06:40:07;3.10;;;1.30;;
13973;SDS011;7060;43.770;4.008;2024-01-16T06:42:37;2.37;;;1.50;;
13973;SDS011;7060;43.770;4.008;2024-01-16T06:45:06;4.40;;;1.50;;
13973;SDS011;7060;43.770;4.008;2024-01-16T06:47:35;6.63;;;3.57;;
13973;SDS011;7060;43.770;4.008;2024-01-16T06:50:05;5.70;;;3.80;;
13973;SDS011;7060;43.770;4.008;2024-01-16T06:52:34;4.93;;;3.00;;
13973;SDS011;7060;43.770;4.008;2024-01-16T06:55:05;5.40;;;2.87;;
13973;SDS011;7060;43.770;4.008;2024-01-16T06:57:35;3.27;;;2.00;;
13973;SDS011;7060;43.770;4.008;2024-01-16T07:00:04;1.50;;;1.00;;
13973;SDS011;7060;43.770;4.008;2024-01-16T07:02:34;2.50;;;1.10;;
13973;SDS011;7060;43.770;4.008;2024-01-16T07:05:04;3.30;;;1.30;;
13973;SDS011;7060;43.770;4.008;2024-01-16T07:07:33;2.00;;;1.10;;
13973;SDS011;7060;43.770;4.008;2024-01-16T07:10:02;2.70;;;1.17;;
13973;SDS011;7060;43.770;4.008;2024-01-16T07:12:36;1.80;;;0.90;;
13973;SDS011;7060;43.770;4.008;2024-01-16T07:15:05;1.47;;;0.93;;
13973;SDS011;7060;43.770;4.008;2024-01-16T07:17:35;1.80;;;1.13;;
13973;SDS011;7060;43.770;4.008;2024-01-16T07:20:04;1.63;;;1.27;;
13973;SDS011;7060;43.770;4.008;2024-01-16T07:22:36;1.73;;;1.20;;
13973;SDS011;7060;43.770;4.008;2024-01-16T07:25:06;1.37;;;0.87;;
13973;SDS011;7060;43.770;4.008;2024-01-16T07:27:37;1.50;;;1.00;;
13973;SDS011;7060;43.770;4.008;2024-01-16T07:30:07;1.90;;;1.20;;
13973;SDS011;7060;43.770;4.008;2024-01-16T07:32:36;1.20;;;1.00;;
13973;SDS011;7060;43.770;4.008;2024-01-16T07:35:05;1.30;;;0.83;;
13973;SDS011;7060;43.770;4.008;2024-01-16T07:37:35;1.67;;;1.10;;
13973;SDS011;7060;43.770;4.008;2024-01-16T07:40:04;2.03;;;1.03;;
13973;SDS011;7060;43.770;4.008;2024-01-16T07:42:38;1.77;;;0.87;;
13973;SDS011;7060;43.770;4.008;2024-01-16T07:45:07;1.77;;;0.80;;
13973;SDS011;7060;43.770;4.008;2024-01-16T07:47:37;2.00;;;0.80;;
13973;SDS011;7060;43.770;4.008;2024-01-16T07:50:06;1.93;;;1.10;;
13973;SDS011;7060;43.770;4.008;2024-01-16T07:52:37;1.20;;;0.87;;
13973;SDS011;7060;43.770;4.008;2024-01-16T07:55:06;1.30;;;1.03;;
13973;SDS011;7060;43.770;4.008;2024-01-16T07:57:35;2.60;;;1.10;;
13973;SDS011;7060;43.770;4.008;2024-01-16T08:00:06;1.80;;;1.07;;
13973;SDS011;7060;43.770;4.008;2024-01-16T08:02:38;2.30;;;1.10;;
13973;SDS011;7060;43.770;4.008;2024-01-16T08:05:08;2.13;;;1.20;;
13973;SDS011;7060;43.770;4.008;2024-01-16T08:07:38;1.80;;;1.20;;
13973;SDS011;7060;43.770;4.008;2024-01-16T08:10:08;1.83;;;1.10;;
13973;SDS011;7060;43.770;4.008;2024-01-16T08:12:37;1.83;;;0.90;;
13973;SDS011;7060;43.770;4.008;2024-01-16T08:15:08;1.50;;;0.90;;
13973;SDS011;7060;43.770;4.008;2024-01-16T08:17:47;2.37;;;1.17;;
13973;SDS011;7060;43.770;4.008;2024-01-16T08:20:16;3.10;;;1.00;;
13973;SDS011;7060;43.770;4.008;2024-01-16T08:22:45;1.53;;;0.93;;
13973;SDS011;7060;43.770;4.008;2024-01-16T08:25:14;1.67;;;1.00;;
13973;SDS011;7060;43.770;4.008;2024-01-16T08:27:43;1.67;;;0.87;;
13973;SDS011;7060;43.770;4.008;2024-01-16T08:30:12;2.70;;;1.20;;
13973;SDS011;7060;43.770;4.008;2024-01-16T08:32:41;1.70;;;1.00;;
13973;SDS011;7060;43.770;4.008;2024-01-16T08:35:11;2.10;;;1.20;;
13973;SDS011;7060;43.770;4.008;2024-01-16T08:37:40;1.70;;;0.97;;
13973;SDS011;7060;43.770;4.008;2024-01-16T08:40:10;2.33;;;1.20;;
13973;SDS011;7060;43.770;4.008;2024-01-16T08:42:39;4.00;;;1.50;;
13973;SDS011;7060;43.770;4.008;2024-01-16T08:45:09;3.75;;;2.05;;
13973;SDS011;7060;43.770;4.008;2024-01-16T08:47:39;2.33;;;1.47;;
13973;SDS011;7060;43.770;4.008;2024-01-16T08:50:08;3.67;;;1.60;;
13973;SDS011;7060;43.770;4.008;2024-01-16T08:52:39;1.83;;;1.10;;
13973;SDS011;7060;43.770;4.008;2024-01-16T08:55:08;2.53;;;0.90;;
13973;SDS011;7060;43.770;4.008;2024-01-16T08:57:37;2.27;;;1.27;;
13973;SDS011;7060;43.770;4.008;2024-01-16T09:00:07;2.37;;;1.30;;
13973;SDS011;7060;43.770;4.008;2024-01-16T09:02:36;2.70;;;1.30;;
13973;SDS011;7060;43.770;4.008;2024-01-16T09:05:05;4.03;;;1.10;;
13973;SDS011;7060;43.770;4.008;2024-01-16T09:07:34;3.33;;;1.10;;
13973;SDS011;7060;43.770;4.008;2024-01-16T09:10:05;2.60;;;1.30;;
13973;SDS011;7060;43.770;4.008;2024-01-16T09:12:35;2.40;;;1.33;;
13973;SDS011;7060;43.770;4.008;2024-01-16T09:15:04;1.70;;;1.00;;
13973;SDS011;7060;43.770;4.008;2024-01-16T09:17:34;2.40;;;1.47;;
13973;SDS011;7060;43.770;4.008;2024-01-16T09:20:03;2.40;;;1.33;;
13973;SDS011;7060;43.770;4.008;2024-01-16T09:22:33;2.10;;;1.17;;
13973;SDS011;7060;43.770;4.008;2024-01-16T09:25:02;1.83;;;1.10;;
13973;SDS011;7060;43.770;4.008;2024-01-16T09:27:34;1.57;;;1.13;;
13973;SDS011;7060;43.770;4.008;2024-01-16T09:30:03;2.00;;;1.10;;
13973;SDS011;7060;43.770;4.008;2024-01-16T09:32:34;3.07;;;1.40;;
13973;SDS011;7060;43.770;4.008;2024-01-16T09:35:04;2.20;;;1.40;;
13973;SDS011;7060;43.770;4.008;2024-01-16T09:37:36;2.07;;;1.40;;
13973;SDS011;7060;43.770;4.008;2024-01-16T09:40:08;4.20;;;3.30;;
13973;SDS011;7060;43.770;4.008;2024-01-16T09:42:38;4.67;;;3.53;;
13973;SDS011;7060;43.770;4.008;2024-01-16T09:45:08;3.47;;;2.70;;
13973;SDS011;7060;43.770;4.008;2024-01-16T09:47:37;3.57;;;2.80;;
13973;SDS011;7060;43.770;4.008;2024-01-16T09:50:07;3.03;;;2.10;;
13973;SDS011;7060;43.770;4.008;2024-01-16T09:52:38;2.77;;;2.07;;
13973;SDS011;7060;43.770;4.008;2024-01-16T09:55:08;2.83;;;2.00;;
13973;SDS011;7060;43.770;4.008;2024-01-16T09:57:38;2.37;;;1.50;;
13973;SDS011;7060;43.770;4.008;2024-01-16T10:00:08;3.57;;;2.07;;
13973;SDS011;7060;43.770;4.008;2024-01-16T10:02:39;2.07;;;1.37;;
13973;SDS011;7060;43.770;4.008;2024-01-16T10:05:09;3.63;;;1.60;;
13973;SDS011;7060;43.770;4.008;2024-01-16T10:07:41;2.23;;;1.33;;
13973;SDS011;7060;43.770;4.008;2024-01-16T10:10:13;2.10;;;1.43;;
13973;SDS011;7060;43.770;4.008;2024-01-16T10:12:52;2.63;;;1.67;;
13973;SDS011;7060;43.770;4.008;2024-01-16T10:15:22;2.60;;;1.50;;
13973;SDS011;7060;43.770;4.008;2024-01-16T10:17:52;4.20;;;1.70;;
13973;SDS011;7060;43.770;4.008;2024-01-16T10:20:31;3.10;;;1.40;;
13973;SDS011;7060;43.770;4.008;2024-01-16T10:23:01;2.23;;;1.47;;
13973;SDS011;7060;43.770;4.008;2024-01-16T10:25:33;3.47;;;1.90;;
13973;SDS011;7060;43.770;4.008;2024-01-16T10:28:04;4.17;;;1.93;;
13973;SDS011;7060;43.770;4.008;2024-01-16T10:30:36;3.33;;;1.60;;
13973;SDS011;7060;43.770;4.008;2024-01-16T10:33:12;3.47;;;2.10;;
13973;SDS011;7060;43.770;4.008;2024-01-16T10:35:44;5.00;;;2.20;;
13973;SDS011;7060;43.770;4.008;2024-01-16T10:38:19;4.87;;;1.93;;
13973;SDS011;7060;43.770;4.008;2024-01-16T10:43:36;3.37;;;2.17;;
13973;SDS011;7060;43.770;4.008;2024-01-16T10:46:12;2.23;;;1.63;;
13973;SDS011;7060;43.770;4.008;2024-01-16T10:48:42;2.17;;;1.77;;
13973;SDS011;7060;43.770;4.008;2024-01-16T10:51:13;2.43;;;1.63;;
13973;SDS011;7060;43.770;4.008;2024-01-16T10:53:43;2.60;;;1.63;;
13973;SDS011;7060;43.770;4.008;2024-01-16T10:56:15;2.77;;;1.60;;
13973;SDS011;7060;43.770;4.008;2024-01-16T10:58:47;2.00;;;1.23;;
13973;SDS011;7060;43.770;4.008;2024-01-16T11:01:23;3.37;;;2.00;;
13973;SDS011;7060;43.770;4.008;2024-01-16T11:03:53;4.63;;;2.10;;
13973;SDS011;7060;43.770;4.008;2024-01-16T11:06:26;2.87;;;2.00;;
13973;SDS011;7060;43.770;4.008;2024-01-16T11:08:56;2.77;;;1.83;;
13973;SDS011;7060;43.770;4.008;2024-01-16T11:11:29;2.63;;;1.67;;
13973;SDS011;7060;43.770;4.008;2024-01-16T11:14:01;2.87;;;2.03;;
13973;SDS011;7060;43.770;4.008;2024-01-16T11:16:31;2.67;;;2.17;;
13973;SDS011;7060;43.770;4.008;2024-01-16T11:19:00;2.90;;;2.10;;
13973;SDS011;7060;43.770;4.008;2024-01-16T11:21:53;4.00;;;2.33;;
13973;SDS011;7060;43.770;4.008;2024-01-16T11:24:22;3.10;;;2.20;;
13973;SDS011;7060;43.770;4.008;2024-01-16T11:26:53;5.33;;;2.67;;
13973;SDS011;7060;43.770;4.008;2024-01-16T11:29:34;5.23;;;3.10;;
13973;SDS011;7060;43.770;4.008;2024-01-16T11:32:04;5.03;;;3.50;;
13973;SDS011;7060;43.770;4.008;2024-01-16T11:34:53;4.67;;;3.47;;
13973;SDS011;7060;43.770;4.008;2024-01-16T11:37:26;5.20;;;3.43;;
13973;SDS011;7060;43.770;4.008;2024-01-16T11:42:53;10.40;;;4.80;;
13973;SDS011;7060;43.770;4.008;2024-01-16T11:48:18;6.87;;;4.57;;
13973;SDS011;7060;43.770;4.008;2024-01-16T11:50:48;6.70;;;4.60;;
13973;SDS011;7060;43.770;4.008;2024-01-16T11:53:36;7.90;;;4.87;;
13973;SDS011;7060;43.770;4.008;2024-01-16T12:02:09;5.73;;;4.00;;
13973;SDS011;7060;43.770;4.008;2024-01-16T12:04:42;6.80;;;4.60;;
13973;SDS011;7060;43.770;4.008;2024-01-16T12:07:20;5.30;;;3.93;;
13973;SDS011;7060;43.770;4.008;2024-01-16T12:09:49;5.73;;;3.90;;
13973;SDS011;7060;43.770;4.008;2024-01-16T12:12:18;4.80;;;3.60;;
13973;SDS011;7060;43.770;4.008;2024-01-16T12:14:51;3.27;;;2.87;;
13973;SDS011;7060;43.770;4.008;2024-01-16T12:17:22;6.53;;;3.60;;
13973;SDS011;7060;43.770;4.008;2024-01-16T12:19:51;4.50;;;3.03;;
13973;SDS011;7060;43.770;4.008;2024-01-16T12:22:20;5.03;;;3.20;;
13973;SDS011;7060;43.770;4.008;2024-01-16T12:24:50;5.13;;;3.50;;
13973;SDS011;7060;43.770;4.008;2024-01-16T12:27:25;4.10;;;2.90;;
13973;SDS011;7060;43.770;4.008;2024-01-16T12:30:04;4.63;;;3.27;;
13973;SDS011;7060;43.770;4.008;2024-01-16T12:32:35;6.93;;;2.97;;
13973;SDS011;7060;43.770;4.008;2024-01-16T12:35:04;4.23;;;2.63;;
13973;SDS011;7060;43.770;4.008;2024-01-16T12:37:34;3.13;;;2.60;;
13973;SDS011;7060;43.770;4.008;2024-01-16T12:40:03;3.33;;;2.40;;
13973;SDS011;7060;43.770;4.008;2024-01-16T12:42:35;3.17;;;2.13;;
13973;SDS011;7060;43.770;4.008;2024-01-16T12:45:07;2.67;;;2.00;;
13973;SDS011;7060;43.770;4.008;2024-01-16T12:47:38;4.07;;;2.20;;
13973;SDS011;7060;43.770;4.008;2024-01-16T12:50:08;5.53;;;2.77;;
13973;SDS011;7060;43.770;4.008;2024-01-16T12:52:37;7.33;;;3.00;;
13973;SDS011;7060;43.770;4.008;2024-01-16T12:55:09;4.63;;;2.60;;
13973;SDS011;7060;43.770;4.008;2024-01-16T12:57:38;3.50;;;2.13;;
13973;SDS011;7060;43.770;4.008;2024-01-16T13:00:20;4.07;;;2.63;;
13973;SDS011;7060;43.770;4.008;2024-01-16T13:02:52;6.13;;;2.90;;
13973;SDS011;7060;43.770;4.008;2024-01-16T13:05:24;3.23;;;2.20;;
13973;SDS011;7060;43.770;4.008;2024-01-16T13:08:00;3.17;;;2.33;;
13973;SDS011;7060;43.770;4.008;2024-01-16T13:10:30;3.47;;;3.10;;
13973;SDS011;7060;43.770;4.008;2024-01-16T13:13:12;3.67;;;3.33;;
13973;SDS011;7060;43.770;4.008;2024-01-16T13:15:42;5.37;;;3.10;;
13973;SDS011;7060;43.770;4.008;2024-01-16T13:18:20;3.83;;;3.13;;
13973;SDS011;7060;43.770;4.008;2024-01-16T13:20:49;8.03;;;2.83;;
13973;SDS011;7060;43.770;4.008;2024-01-16T13:23:19;4.87;;;2.37;;
13973;SDS011;7060;43.770;4.008;2024-01-16T13:25:49;3.13;;;2.40;;
13973;SDS011;7060;43.770;4.008;2024-01-16T13:28:18;4.07;;;2.73;;
13973;SDS011;7060;43.770;4.008;2024-01-16T13:30:52;3.47;;;2.43;;
13973;SDS011;7060;43.770;4.008;2024-01-16T13:33:23;3.10;;;2.10;;
13973;SDS011;7060;43.770;4.008;2024-01-16T13:35:54;3.70;;;2.90;;
13973;SDS011;7060;43.770;4.008;2024-01-16T13:38:23;3.87;;;2.23;;
13973;SDS011;7060;43.770;4.008;2024-01-16T13:40:52;2.93;;;2.60;;
13973;SDS011;7060;43.770;4.008;2024-01-16T13:43:21;2.53;;;2.03;;
13973;SDS011;7060;43.770;4.008;2024-01-16T13:45:50;2.57;;;2.00;;
13973;SDS011;7060;43.770;4.008;2024-01-16T13:48:19;2.70;;;1.97;;
13973;SDS011;7060;43.770;4.008;2024-01-16T13:50:50;2.70;;;2.07;;
13973;SDS011;7060;43.770;4.008;2024-01-16T13:53:19;12.70;;;3.43;;
13973;SDS011;7060;43.770;4.008;2024-01-16T13:55:48;7.60;;;5.77;;
13973;SDS011;7060;43.770;4.008;2024-01-16T13:58:17;11.47;;;5.33;;
13973;SDS011;7060;43.770;4.008;2024-01-16T14:00:46;6.57;;;4.63;;
13973;SDS011;7060;43.770;4.008;2024-01-16T14:03:15;6.17;;;4.57;;
13973;SDS011;7060;43.770;4.008;2024-01-16T14:05:45;5.27;;;4.50;;
13973;SDS011;7060;43.770;4.008;2024-01-16T14:08:16;4.00;;;2.70;;
13973;SDS011;7060;43.770;4.008;2024-01-16T14:10:45;3.00;;;2.27;;
13973;SDS011;7060;43.770;4.008;2024-01-16T14:13:15;3.33;;;2.67;;
13973;SDS011;7060;43.770;4.008;2024-01-16T14:15:44;3.77;;;2.43;;
13973;SDS011;7060;43.770;4.008;2024-01-16T14:18:12;4.30;;;2.70;;
13973;SDS011;7060;43.770;4.008;2024-01-16T14:20:42;3.57;;;2.83;;
13973;SDS011;7060;43.770;4.008;2024-01-16T14:23:11;3.87;;;2.90;;
13973;SDS011;7060;43.770;4.008;2024-01-16T14:25:41;3.97;;;2.90;;
13973;SDS011;7060;43.770;4.008;2024-01-16T14:28:12;6.03;;;3.13;;
13973;SDS011;7060;43.770;4.008;2024-01-16T14:30:52;5.00;;;3.03;;
13973;SDS011;7060;43.770;4.008;2024-01-16T14:33:21;3.83;;;3.23;;
13973;SDS011;7060;43.770;4.008;2024-01-16T14:35:50;5.03;;;3.43;;
13973;SDS011;7060;43.770;4.008;2024-01-16T14:38:19;9.33;;;3.73;;
13973;SDS011;7060;43.770;4.008;2024-01-16T14:40:49;5.27;;;3.50;;
13973;SDS011;7060;43.770;4.008;2024-01-16T14:43:19;5.27;;;3.97;;
13973;SDS011;7060;43.770;4.008;2024-01-16T14:45:48;5.27;;;3.70;;
13973;SDS011;7060;43.770;4.008;2024-01-16T14:48:17;5.60;;;3.90;;
13973;SDS011;7060;43.770;4.008;2024-01-16T14:50:47;7.13;;;4.70;;
13973;SDS011;7060;43.770;4.008;2024-01-16T14:53:16;13.13;;;3.80;;
13973;SDS011;7060;43.770;4.008;2024-01-16T14:55:51;5.23;;;3.93;;
13973;SDS011;7060;43.770;4.008;2024-01-16T14:58:20;5.83;;;3.77;;
13973;SDS011;7060;43.770;4.008;2024-01-16T15:00:50;6.27;;;3.63;;
13973;SDS011;7060;43.770;4.008;2024-01-16T15:03:20;5.03;;;3.90;;
13973;SDS011;7060;43.770;4.008;2024-01-16T15:05:50;5.97;;;4.73;;
13973;SDS011;7060;43.770;4.008;2024-01-16T15:08:20;6.40;;;4.27;;
13973;SDS011;7060;43.770;4.008;2024-01-16T15:10:50;5.63;;;4.07;;
13973;SDS011;7060;43.770;4.008;2024-01-16T15:13:19;9.60;;;5.80;;
13973;SDS011;7060;43.770;4.008;2024-01-16T15:15:50;8.73;;;7.07;;
13973;SDS011;7060;43.770;4.008;2024-01-16T15:18:20;8.37;;;6.67;;
13973;SDS011;7060;43.770;4.008;2024-01-16T15:20:49;10.40;;;7.10;;
13973;SDS011;7060;43.770;4.008;2024-01-16T15:23:18;12.67;;;7.33;;
13973;SDS011;7060;43.770;4.008;2024-01-16T15:25:47;14.37;;;7.97;;
13973;SDS011;7060;43.770;4.008;2024-01-16T15:28:18;13.50;;;9.07;;
13973;SDS011;7060;43.770;4.008;2024-01-16T15:30:47;13.67;;;8.30;;
13973;SDS011;7060;43.770;4.008;2024-01-16T15:33:16;12.20;;;8.63;;
13973;SDS011;7060;43.770;4.008;2024-01-16T15:35:45;11.50;;;8.17;;